createdAt,value
2022-12-12T00:00:19.627Z,99810.63
2022-12-12T00:03:11.747Z,99806.19
2022-12-12T00:05:45.316Z,99811.23
2022-12-12T00:08:17.413Z,99806.67
2022-12-12T00:10:49.741Z,99800.73
2022-12-12T00:13:21.913Z,99805.72
2022-12-12T00:15:54.097Z,99802.80
2022-12-12T00:18:26.266Z,99803.45
2022-12-12T00:20:59.910Z,99804.10
2022-12-12T00:23:35.977Z,99800.85
2022-12-12T00:26:16.277Z,99802.12
2022-12-12T00:28:48.972Z,99800.92
2022-12-12T00:31:22.499Z,99801.44
2022-12-12T00:33:55.182Z,99803.54
2022-12-12T00:36:31.566Z,99797.37
2022-12-12T00:39:04.202Z,99799.61
2022-12-12T00:41:37.672Z,99801.20
2022-12-12T00:44:10.112Z,99797.59
2022-12-12T00:46:44.564Z,99795.64
2022-12-12T00:49:16.734Z,99793.84
2022-12-12T00:51:49.175Z,99792.61
2022-12-12T00:54:21.660Z,99788.75
2022-12-12T00:56:53.758Z,99789.99
2022-12-12T00:59:25.888Z,99792.07
2022-12-12T01:01:58.059Z,99791.84
2022-12-12T01:04:30.707Z,99791.03
2022-12-12T01:07:02.787Z,99789.02
2022-12-12T01:09:38.533Z,99784.50
2022-12-12T01:12:12.932Z,99781.88
2022-12-12T01:14:45.662Z,99781.34
2022-12-12T01:17:17.843Z,99780.10
2022-12-12T01:19:49.894Z,99774.73
2022-12-12T01:22:23.588Z,99769.08
2022-12-12T01:24:57.066Z,99765.45
2022-12-12T01:27:29.507Z,99765.75
2022-12-12T01:30:02.791Z,99760.63
2022-12-12T01:32:35.033Z,99754.15
2022-12-12T01:35:08.475Z,99754.10
2022-12-12T01:37:41.905Z,99756.12
2022-12-12T01:40:18.141Z,99751.77
2022-12-12T01:42:51.506Z,99752.70
2022-12-12T01:45:58.333Z,99750.62
2022-12-12T01:48:35.040Z,99744.19
2022-12-12T01:51:11.632Z,99739.14
2022-12-12T01:53:44.386Z,99741.38
2022-12-12T01:56:20.449Z,99739.46
2022-12-12T01:58:57.852Z,99735.94
2022-12-12T02:01:30.972Z,99734.38
2022-12-12T02:04:04.090Z,99729.20
2022-12-12T02:06:36.769Z,99726.66
2022-12-12T02:09:13.126Z,99723.95
2022-12-12T02:11:48.764Z,99718.59
2022-12-12T02:14:25.526Z,99723.20
2022-12-12T02:17:34.425Z,99722.30
2022-12-12T02:20:51.586Z,99721.05
2022-12-12T02:23:51.183Z,99717.73
2022-12-12T02:27:09.106Z,99714.95
2022-12-12T02:30:07.328Z,99711.55
2022-12-12T02:32:59.913Z,99716.77
2022-12-12T02:35:43.281Z,99710.73
2022-12-12T02:38:29.105Z,99710.22
2022-12-12T02:41:20.063Z,99701.68
2022-12-12T02:44:09.068Z,99702.34
2022-12-12T02:46:49.322Z,99702.39
2022-12-12T02:49:29.212Z,99704.38
2022-12-12T02:52:02.552Z,99699.61
2022-12-12T02:54:37.484Z,99697.67
2022-12-12T03:00:36.241Z,99700.59
2022-12-12T03:03:52.815Z,99697.77
2022-12-12T03:07:16.401Z,99699.86
2022-12-12T03:10:01.206Z,99697.35
2022-12-12T03:12:41.824Z,99695.63
2022-12-12T03:15:21.647Z,99698.60
2022-12-12T03:18:00.772Z,99696.11
2022-12-12T03:20:38.328Z,99695.60
2022-12-12T03:23:15.275Z,99696.82
2022-12-12T03:25:55.925Z,99694.86
2022-12-12T03:28:32.776Z,99698.20
2022-12-12T03:31:08.698Z,99697.14
2022-12-12T03:33:45.870Z,99698.85
2022-12-12T03:36:23.118Z,99700.00
2022-12-12T03:39:00.523Z,99698.02
2022-12-12T03:41:38.121Z,99699.77
2022-12-12T03:44:17.942Z,99698.98
2022-12-12T03:46:56.144Z,99700.59
2022-12-12T03:49:33.872Z,99692.82
2022-12-12T03:52:11.500Z,99700.02
2022-12-12T03:54:49.479Z,99700.02
2022-12-12T03:57:27.863Z,99699.80
2022-12-12T04:00:03.412Z,99704.17
2022-12-12T04:02:52.604Z,99706.00
2022-12-12T04:05:31.737Z,99706.14
2022-12-12T04:08:08.692Z,99704.80
2022-12-12T04:11:05.138Z,99707.08
2022-12-12T04:13:47.146Z,99704.68
2022-12-12T04:16:27.020Z,99704.00
2022-12-12T04:19:41.177Z,99698.30
2022-12-12T04:41:54.091Z,99695.45
2022-12-12T04:44:48.465Z,99699.96
2022-12-12T04:47:23.194Z,99698.16
2022-12-12T04:49:56.806Z,99696.00
2022-12-12T04:52:32.667Z,99699.80
2022-12-12T04:55:16.598Z,99698.67
2022-12-12T04:58:07.243Z,99691.17
2022-12-12T05:00:47.455Z,99698.39
2022-12-12T05:03:25.590Z,99695.16
2022-12-12T05:06:02.354Z,99698.30
2022-12-12T05:08:37.604Z,99697.11
2022-12-12T05:11:10.768Z,99702.90
2022-12-12T05:13:44.146Z,99702.45
2022-12-12T05:16:21.522Z,99704.46
2022-12-12T05:18:53.696Z,99703.61
2022-12-12T05:21:26.032Z,99704.03
2022-12-12T05:23:58.311Z,99707.83
2022-12-12T05:26:32.562Z,99706.98
2022-12-12T05:29:07.619Z,99705.55
2022-12-12T05:31:42.705Z,99706.40
2022-12-12T05:34:15.340Z,99705.21
2022-12-12T05:36:48.000Z,99701.09
2022-12-12T05:39:20.042Z,99701.73
2022-12-12T05:41:52.135Z,99699.73
2022-12-12T05:44:24.264Z,99699.20
2022-12-12T05:46:56.435Z,99700.23
2022-12-12T05:49:28.711Z,99702.70
2022-12-12T05:52:01.029Z,99700.42
2022-12-12T05:54:33.270Z,99699.77
2022-12-12T05:57:05.428Z,99694.98
2022-12-12T05:59:37.637Z,99692.47
2022-12-12T06:02:09.803Z,99691.89
2022-12-12T06:04:42.123Z,99690.13
2022-12-12T06:07:14.387Z,99694.27
2022-12-12T06:09:46.518Z,99696.08
2022-12-12T06:12:18.608Z,99692.02
2022-12-12T06:14:50.937Z,99693.20
2022-12-12T06:17:24.474Z,99694.55
2022-12-12T06:19:59.401Z,99697.99
2022-12-12T06:22:32.505Z,99700.97
2022-12-12T06:25:05.299Z,99706.01
2022-12-12T06:27:37.869Z,99703.02
2022-12-12T06:30:13.038Z,99703.74
2022-12-12T06:32:48.033Z,99708.90
2022-12-12T06:35:20.486Z,99708.55
2022-12-12T06:37:52.833Z,99705.42
2022-12-12T06:40:25.394Z,99708.63
2022-12-12T06:42:57.556Z,99698.03
2022-12-12T06:45:29.592Z,99703.55
2022-12-12T06:48:02.016Z,99704.34
2022-12-12T06:50:34.105Z,99704.16
2022-12-12T06:53:10.792Z,99708.25
2022-12-12T06:55:45.754Z,99708.21
2022-12-12T06:58:20.479Z,99708.05
2022-12-12T07:00:55.821Z,99705.98
2022-12-12T07:03:28.085Z,99710.37
2022-12-12T07:06:00.293Z,99712.92
2022-12-12T07:08:32.539Z,99711.84
2022-12-12T07:11:11.417Z,99712.25
2022-12-12T07:13:43.569Z,99716.88
2022-12-12T07:16:16.120Z,99717.60
2022-12-12T07:18:48.882Z,99717.78
2022-12-12T07:21:22.580Z,99718.02
2022-12-12T07:23:54.684Z,99716.91
2022-12-12T07:26:27.490Z,99719.45
2022-12-12T07:28:59.665Z,99718.45
2022-12-12T07:31:34.880Z,99714.59
2022-12-12T07:34:07.134Z,99719.34
2022-12-12T07:36:39.401Z,99720.38
2022-12-12T07:39:15.876Z,99716.92
2022-12-12T07:41:51.235Z,99725.19
2022-12-12T07:44:26.936Z,99721.73
2022-12-12T07:47:01.368Z,99719.17
2022-12-12T07:49:33.484Z,99720.95
2022-12-12T07:52:05.873Z,99723.71
2022-12-12T07:54:37.981Z,99722.04
2022-12-12T07:57:10.074Z,99720.23
2022-12-12T07:59:42.331Z,99718.13
2022-12-12T08:02:14.732Z,99719.98
2022-12-12T08:04:47.017Z,99718.21
2022-12-12T08:07:19.265Z,99717.77
2022-12-12T08:09:51.521Z,99712.83
2022-12-12T08:12:23.572Z,99711.57
2022-12-12T08:14:55.898Z,99710.58
2022-12-12T08:17:28.575Z,99710.11
2022-12-12T08:20:00.920Z,99704.63
2022-12-12T08:22:37.015Z,99705.96
2022-12-12T08:25:10.905Z,99706.33
2022-12-12T08:27:43.253Z,99708.44
2022-12-12T08:30:16.575Z,99713.88
2022-12-12T08:32:48.711Z,99711.59
2022-12-12T08:35:21.107Z,99713.15
2022-12-12T08:38:09.866Z,99709.38
2022-12-12T08:40:42.651Z,99714.23
2022-12-12T08:43:14.876Z,99707.00
2022-12-12T08:45:48.366Z,99715.62
2022-12-12T08:48:20.714Z,99716.41
2022-12-12T08:50:54.512Z,99714.67
2022-12-12T08:53:27.921Z,99714.61
2022-12-12T08:56:00.015Z,99719.27
2022-12-12T08:58:32.126Z,99712.71
2022-12-12T09:01:04.495Z,99715.64
2022-12-12T09:03:36.642Z,99713.92
2022-12-12T09:06:10.758Z,99711.23
2022-12-12T09:08:47.587Z,99712.20
2022-12-12T09:11:20.730Z,99708.92
2022-12-12T09:13:52.880Z,99702.33
2022-12-12T09:16:26.681Z,99697.00
2022-12-12T09:18:59.597Z,99693.55
2022-12-12T09:21:32.721Z,99694.98
2022-12-12T09:24:05.830Z,99693.71
2022-12-12T09:26:49.047Z,99691.77
2022-12-12T09:29:21.309Z,99693.23
2022-12-12T09:31:53.452Z,99690.02
2022-12-12T09:34:25.717Z,99689.44
2022-12-12T09:36:57.864Z,99690.89
2022-12-12T09:39:29.966Z,99691.10
2022-12-12T09:42:12.264Z,99688.21
2022-12-12T09:44:44.391Z,99692.94
2022-12-12T09:47:33.155Z,99694.73
2022-12-12T09:50:14.653Z,99696.60
2022-12-12T09:52:47.513Z,99697.90
2022-12-12T09:55:35.958Z,99697.98
2022-12-12T09:58:24.297Z,99699.34
2022-12-12T10:01:08.723Z,99697.92
2022-12-12T10:03:57.365Z,99697.02
2022-12-12T10:06:37.582Z,99695.44
2022-12-12T10:09:28.619Z,99692.63
2022-12-12T10:12:07.938Z,99686.35
2022-12-12T10:14:44.936Z,99698.25
2022-12-12T10:17:21.807Z,99695.92
2022-12-12T10:20:00.089Z,99696.37
2022-12-12T10:22:39.200Z,99695.08
2022-12-12T10:25:26.308Z,99695.84
2022-12-12T10:28:10.199Z,99693.70
2022-12-12T10:30:56.381Z,99696.17
2022-12-12T10:33:38.221Z,99697.91
2022-12-12T10:36:18.799Z,99700.15
2022-12-12T10:39:42.386Z,99704.67
2022-12-12T10:42:36.504Z,99701.39
2022-12-12T10:45:30.930Z,99702.38
2022-12-12T10:48:03.286Z,99706.13
2022-12-12T10:50:40.069Z,99702.73
2022-12-12T10:53:13.714Z,99699.10
2022-12-12T10:55:52.991Z,99696.77
2022-12-12T10:58:27.484Z,99693.59
2022-12-12T11:01:13.279Z,99693.33
2022-12-12T11:03:49.098Z,99696.91
2022-12-12T11:06:30.718Z,99693.98
2022-12-12T11:09:15.370Z,99701.68
2022-12-12T11:12:00.534Z,99705.35
2022-12-12T11:14:38.989Z,99702.04
2022-12-12T11:17:25.904Z,99704.34
2022-12-12T11:20:00.715Z,99708.17
2022-12-12T11:22:34.948Z,99704.27
2022-12-12T11:25:08.262Z,99698.00
2022-12-12T11:27:42.667Z,99693.61
2022-12-12T11:30:27.748Z,99697.45
2022-12-12T11:33:00.460Z,99697.15
2022-12-12T11:35:43.868Z,99693.72
2022-12-12T11:38:22.467Z,99690.22
2022-12-12T11:41:02.688Z,99693.58
2022-12-12T11:43:36.899Z,99690.71
2022-12-12T11:46:18.583Z,99685.87
2022-12-12T11:49:00.172Z,99689.67
2022-12-12T11:51:38.700Z,99690.35
2022-12-12T11:54:15.924Z,99689.35
2022-12-12T11:56:55.555Z,99696.14
2022-12-12T11:59:41.239Z,99693.45
2022-12-12T12:02:45.125Z,99694.76
2022-12-12T12:05:27.536Z,99698.27
2022-12-12T12:08:18.089Z,99696.26
2022-12-12T12:11:03.008Z,99699.12
2022-12-12T12:13:50.887Z,99698.88
2022-12-12T12:16:33.422Z,99697.02
2022-12-12T12:19:15.548Z,99701.80
2022-12-12T12:22:01.554Z,99700.16
2022-12-12T12:24:58.717Z,99698.25
2022-12-12T12:27:39.065Z,99701.49
2022-12-12T12:30:21.280Z,99706.99
2022-12-12T12:33:12.027Z,99708.27
2022-12-12T12:35:57.704Z,99704.63
2022-12-12T12:39:02.785Z,99705.48
2022-12-12T12:42:11.802Z,99708.63
2022-12-12T12:44:52.576Z,99708.02
2022-12-12T12:47:39.452Z,99712.83
2022-12-12T12:50:23.058Z,99706.70
2022-12-12T12:53:01.436Z,99708.17
2022-12-12T12:55:43.600Z,99713.54
2022-12-12T12:58:22.803Z,99712.93
2022-12-12T13:01:25.022Z,99709.66
2022-12-12T13:04:06.661Z,99704.27
2022-12-12T13:06:45.547Z,99708.08
2022-12-12T13:09:30.337Z,99708.13
2022-12-12T13:12:10.625Z,99704.13
2022-12-12T13:14:49.459Z,99709.75
2022-12-12T13:17:32.362Z,99709.98
2022-12-12T13:20:14.820Z,99711.39
2022-12-12T13:23:18.646Z,99716.41
2022-12-12T13:25:59.648Z,99718.68
2022-12-12T13:28:38.417Z,99721.09
2022-12-12T13:31:42.878Z,99726.77
2022-12-12T13:34:20.075Z,99727.70
2022-12-12T13:36:53.340Z,99731.55
2022-12-12T13:39:32.123Z,99736.59
2022-12-12T13:42:08.598Z,99742.45
2022-12-12T13:44:44.507Z,99739.53
2022-12-12T13:47:55.355Z,99739.48
2022-12-12T13:50:27.619Z,99739.95
2022-12-12T13:53:19.975Z,99735.65
2022-12-12T13:56:12.698Z,99742.55
2022-12-12T13:58:44.804Z,99743.73
2022-12-12T14:01:40.951Z,99747.42
2022-12-12T14:04:29.201Z,99747.87
2022-12-12T14:07:07.438Z,99748.02
2022-12-12T14:09:48.319Z,99746.32
2022-12-12T14:12:31.142Z,99746.14
2022-12-12T14:15:21.512Z,99750.31
2022-12-12T14:18:00.816Z,99754.77
2022-12-12T14:20:37.030Z,99755.89
2022-12-12T14:23:26.440Z,99759.05
2022-12-12T14:25:59.913Z,99757.86
2022-12-12T14:29:13.320Z,99760.36
2022-12-12T14:31:54.119Z,99762.30
2022-12-12T14:34:30.828Z,99766.30
2022-12-12T14:37:34.256Z,99763.10
2022-12-12T14:40:39.191Z,99775.12
2022-12-12T14:43:43.662Z,99774.52
2022-12-12T14:46:20.620Z,99779.59
2022-12-12T14:49:11.674Z,99782.52
2022-12-12T14:51:45.309Z,99787.38
2022-12-12T14:54:20.000Z,99786.32
2022-12-12T14:56:55.796Z,99786.59
2022-12-12T14:59:33.708Z,99787.77
2022-12-12T15:02:20.809Z,99792.16
2022-12-12T15:05:04.168Z,99787.58
2022-12-12T15:07:39.579Z,99797.06
2022-12-12T15:10:25.704Z,99793.39
2022-12-12T15:12:58.871Z,99794.70
2022-12-12T15:15:34.870Z,99787.80
2022-12-12T15:18:10.674Z,99789.19
2022-12-12T15:20:45.818Z,99787.73
2022-12-12T15:23:21.081Z,99791.83
2022-12-12T15:25:57.799Z,99793.35
2022-12-12T15:28:32.780Z,99795.39
2022-12-12T15:31:05.569Z,99794.84
2022-12-12T15:33:41.423Z,99796.49
2022-12-12T15:40:12.619Z,99796.77
2022-12-12T15:46:02.637Z,99805.65
2022-12-12T15:48:34.808Z,99802.77
2022-12-12T15:51:08.148Z,99807.96
2022-12-12T15:53:42.417Z,99809.60
2022-12-12T15:56:16.903Z,99805.18
2022-12-12T15:58:52.095Z,99807.88
2022-12-12T16:01:32.625Z,99809.69
2022-12-12T16:04:52.946Z,99811.20
2022-12-12T16:07:26.494Z,99813.32
2022-12-12T16:10:22.202Z,99809.63
2022-12-12T16:13:30.857Z,99813.73
2022-12-12T16:16:25.431Z,99820.60
2022-12-12T16:19:26.599Z,99823.96
2022-12-12T16:22:16.030Z,99824.39
2022-12-12T16:24:51.089Z,99825.92
2022-12-12T16:27:34.367Z,99826.55
2022-12-12T16:30:09.169Z,99833.11
2022-12-12T16:32:44.042Z,99836.67
2022-12-12T16:35:21.567Z,99833.81
2022-12-12T16:38:00.103Z,99837.34
2022-12-12T16:40:32.355Z,99834.06
2022-12-12T16:43:11.020Z,99837.00
2022-12-12T16:45:44.283Z,99836.02
2022-12-12T16:48:18.720Z,99840.30
2022-12-12T16:51:29.511Z,99840.09
2022-12-12T16:54:02.407Z,99845.12
2022-12-12T16:56:35.051Z,99849.98
2022-12-12T16:59:08.579Z,99850.82
2022-12-12T17:01:50.072Z,99853.83
2022-12-12T17:04:52.687Z,99853.20
2022-12-12T17:07:24.824Z,99860.27
2022-12-12T17:09:58.204Z,99863.39
2022-12-12T17:12:30.596Z,99863.32
2022-12-12T17:15:02.939Z,99868.86
2022-12-12T17:17:35.312Z,99873.85
2022-12-12T17:20:09.367Z,99874.49
2022-12-12T17:22:41.985Z,99877.67
2022-12-12T17:25:15.126Z,99878.44
2022-12-12T17:27:47.789Z,99874.83
2022-12-12T17:30:20.328Z,99879.19
2022-12-12T17:35:43.213Z,99880.89
2022-12-12T17:38:27.835Z,99877.17
2022-12-12T17:41:03.809Z,99873.41
2022-12-12T17:43:36.825Z,99875.20
2022-12-12T17:46:16.053Z,99882.09
2022-12-12T17:48:49.580Z,99883.73
2022-12-12T17:51:23.920Z,99886.85
2022-12-12T17:54:00.281Z,99885.88
2022-12-12T17:56:32.744Z,99891.63
2022-12-12T17:59:07.910Z,99889.14
2022-12-12T18:01:40.421Z,99884.25
2022-12-12T18:04:12.960Z,99887.20
2022-12-12T18:06:45.350Z,99882.54
2022-12-12T18:09:18.861Z,99888.34
2022-12-12T18:11:51.065Z,99897.95
2022-12-12T18:14:23.457Z,99902.66
2022-12-12T18:16:55.801Z,99907.34
2022-12-12T18:19:30.172Z,99913.66
2022-12-12T18:22:02.661Z,99918.98
2022-12-12T18:24:35.206Z,99923.39
2022-12-12T18:27:07.366Z,99923.55
2022-12-12T18:29:39.530Z,99925.30
2022-12-12T18:32:11.692Z,99924.02
2022-12-12T18:34:43.840Z,99924.68
2022-12-12T18:37:27.667Z,99920.30
2022-12-12T18:40:00.555Z,99928.20
2022-12-12T18:42:32.788Z,99933.36
2022-12-12T18:45:05.672Z,99934.98
2022-12-12T18:47:37.960Z,99934.91
2022-12-12T18:50:11.459Z,99935.91
2022-12-12T18:52:43.848Z,99941.79
2022-12-12T18:55:16.221Z,99948.55
2022-12-12T18:57:48.582Z,99951.98
2022-12-12T19:00:52.906Z,99956.05
2022-12-12T19:03:25.002Z,99959.68
2022-12-12T19:05:57.347Z,99967.95
2022-12-12T19:08:30.853Z,99969.35
2022-12-12T19:11:03.527Z,99965.71
2022-12-12T19:13:36.336Z,99969.34
2022-12-12T19:16:10.750Z,99978.45
2022-12-12T19:18:44.902Z,99976.01
2022-12-12T19:21:19.906Z,99981.86
2022-12-12T19:23:53.644Z,99985.04
2022-12-12T19:26:28.414Z,99984.27
2022-12-12T19:29:03.531Z,99986.59
2022-12-12T19:31:36.208Z,99986.34
2022-12-12T19:34:12.776Z,99988.87
2022-12-12T19:36:47.583Z,99992.49
2022-12-12T19:39:19.816Z,99998.02
2022-12-12T19:41:52.689Z,100002.55
2022-12-12T19:44:25.844Z,100000.92
2022-12-12T19:46:58.101Z,100004.10
2022-12-12T19:49:30.473Z,100002.90
2022-12-12T19:52:35.391Z,100006.70
2022-12-12T19:55:12.341Z,100003.77
2022-12-12T19:57:45.145Z,100009.34
2022-12-12T20:00:19.967Z,100012.44
2022-12-12T20:02:52.229Z,100017.44
2022-12-12T20:08:20.078Z,100015.17
2022-12-12T20:10:52.419Z,100017.48
2022-12-12T20:13:24.635Z,100019.55
2022-12-12T20:15:57.067Z,100019.92
2022-12-12T20:18:29.363Z,100025.27
2022-12-12T20:21:03.633Z,100027.32
2022-12-12T20:23:41.191Z,100028.56
2022-12-12T20:26:20.915Z,100033.39
2022-12-12T20:28:54.157Z,100034.01
2022-12-12T20:31:28.659Z,100036.48
2022-12-12T20:34:01.729Z,100037.61
2022-12-12T20:36:36.678Z,100040.45
2022-12-12T20:39:17.298Z,100048.34
2022-12-12T20:41:50.102Z,100050.70
2022-12-12T20:44:22.645Z,100052.63
2022-12-12T20:47:07.131Z,100052.83
2022-12-12T20:49:40.678Z,100056.92
2022-12-12T20:52:13.190Z,100060.85
2022-12-12T20:54:45.442Z,100059.26
2022-12-12T20:57:18.015Z,100059.85
2022-12-12T20:59:51.279Z,100059.14
2022-12-12T21:02:28.659Z,100061.68
2022-12-12T21:05:08.580Z,100061.28
2022-12-12T21:07:40.730Z,100065.27
2022-12-12T21:10:13.171Z,100063.05
2022-12-12T21:12:45.376Z,100066.30
2022-12-12T21:15:18.103Z,100065.85
2022-12-12T21:17:50.436Z,100070.66
2022-12-12T21:20:25.090Z,100071.35
2022-12-12T21:22:57.206Z,100064.30
2022-12-12T21:25:29.307Z,100068.75
2022-12-12T21:28:01.373Z,100068.59
2022-12-12T21:30:33.517Z,100067.27
2022-12-12T21:33:06.028Z,100071.80
2022-12-12T21:35:41.168Z,100075.11
2022-12-12T21:38:13.493Z,100082.53
2022-12-12T21:40:45.767Z,100085.22
2022-12-12T21:43:24.062Z,100095.45
2022-12-12T21:45:57.756Z,100095.44
2022-12-12T21:48:31.884Z,100094.92
2022-12-12T21:51:05.550Z,100098.56
2022-12-12T21:53:40.157Z,100102.98
2022-12-12T21:56:18.733Z,100104.52
2022-12-12T21:58:53.249Z,100098.05
2022-12-12T22:01:25.782Z,100100.05
2022-12-12T22:04:05.762Z,100097.93
2022-12-12T22:06:38.465Z,100099.05
2022-12-12T22:09:12.792Z,100100.80
2022-12-12T22:11:49.935Z,100095.52
2022-12-12T22:14:27.289Z,100100.42
2022-12-12T22:17:01.876Z,100102.21
2022-12-12T22:19:34.172Z,100107.34
2022-12-12T22:22:06.392Z,100105.88
2022-12-12T22:24:38.529Z,100105.61
2022-12-12T22:27:10.777Z,100101.14
2022-12-12T22:29:42.852Z,100098.84
2022-12-12T22:32:15.205Z,100098.54
2022-12-12T22:34:51.203Z,100098.63
2022-12-12T22:37:23.305Z,100106.29
2022-12-12T22:39:55.641Z,100106.92
2022-12-12T22:42:29.829Z,100104.89
2022-12-12T22:45:04.315Z,100105.65
2022-12-12T22:47:37.636Z,100109.75
2022-12-12T22:50:14.377Z,100111.09
2022-12-12T22:52:46.689Z,100115.08
2022-12-12T22:55:19.028Z,100114.29
2022-12-12T22:57:51.379Z,100117.34
2022-12-12T23:00:26.256Z,100120.48
2022-12-12T23:02:58.400Z,100127.68
2022-12-12T23:05:31.179Z,100126.55
2022-12-12T23:08:03.399Z,100121.88
2022-12-12T23:10:37.489Z,100123.13
2022-12-12T23:13:10.239Z,100116.21
2022-12-12T23:15:42.540Z,100116.04
2022-12-12T23:18:15.911Z,100110.57
2022-12-12T23:20:49.210Z,100118.16
2022-12-12T23:23:24.229Z,100121.65
2022-12-12T23:25:56.504Z,100126.75
2022-12-12T23:28:29.580Z,100126.30
2022-12-12T23:31:07.943Z,100127.00
2022-12-12T23:33:45.300Z,100135.23
2022-12-12T23:36:18.060Z,100137.67
2022-12-12T23:38:50.195Z,100142.59
2022-12-12T23:41:22.387Z,100142.38
2022-12-12T23:43:55.641Z,100140.17
2022-12-12T23:46:32.385Z,100142.99
2022-12-12T23:49:07.410Z,100145.44
2022-12-12T23:51:41.572Z,100141.23
2022-12-12T23:54:15.610Z,100140.27
2022-12-12T23:56:49.424Z,100141.72
2022-12-12T23:59:22.748Z,100143.29
